Tumbarumba, New South Wales

5:42 AM AEDT on December 21, 2014 (GMT +1100)
Tumbarumba | Change Station
CLOSE
Current Station
Personal Weather Station
Location: Tumbarumba, NSW
Elevation: 2241 ft
Nearby Weather Stations

Elev 2241 ft 35.78 °S, 148.00 °E | Updated 8 minutes ago

Clear
Clear
53.0 °F
Feels Like 53.0 °F
N
0.0
Wind Variable Wind from NNW
Gusts 3.0 mph

Today
High -- | Low -- °F
--% Chance of Precip.
Yesterday
High -- | Low -- °F
Precip. -- in
5:48 AM 8:23 PM
Waning Crescent, 2% visible
Pressure 29.95 in
Visibility 6.2 miles
Clouds
Dew Point 49 °F
Humidity 86%
Rainfall 0.00 in
Snow Depth Not available.
UV Not available.
Pollen Not available.
Air Quality Not available.
Flu Activity Not available.
METAR YSWG 201800Z AUTO 10006KT 9999 // NCD 18/12 Q1014

More Conditions Fewer Conditions

Pressure 29.95 in
Visibility 6.2 miles
Clouds
Dew Point 49 °F
Humidity 86%
Rainfall 0.00 in
Snow Depth Not available.
UV Not available.
Pollen Not available.
Air Quality Not available.
Flu Activity Not available.
METAR YSWG 201800Z AUTO 10006KT 9999 // NCD 18/12 Q1014

More Conditions Fewer Conditions

10-Day Weather Forecast

Almanac

Astronomy

Dec. 21, 2014 Rise Set
Actual Time
Civil Twilight
Nautical Twilight
Astronomical Twilight
Moon
Length of Visible Light
Length of Day
Tomorrow will be .
, % of the Moon is Illuminated

Today's Extremes

Country Highs Country Lows

Community

WunderPhotos

Upload Photos

1,779,244 photos uploaded!

WunderBlogs® & News

Nearby

Air Quality

  Air Quality AQ Index Pollutant
Not available.

Snow Depth

Station Depth Elevation

Earthquake Activity

City Distance Mag. Time & Date
Minimum magnitude displayed is 2.5.

Coastal Water Temperatures

Place Temperature

Nearby Weather Stations